Etusivu
METAR-TAF:

METAR-TAF

Lentoasemat :

Linköpingin lentoasema

Linköping, Ruotsi

Leveyspiiri: 58-24N, Pituuspiiri: 015-41E, korkeus merenpinnasta: 52 m

Tämänhetkinen sää

Tämä raportti tehtiin 12 minuuttia sitten, kello 10.50 UTC
Tuuli 20 kn lännestä, vaihdellen lännen/lounaan ja lännen/luoteen välillä
Lämpötila 13°C
Kosteus 51%
Ilmanpaine 1021 hPa
Näkyvyys 10 km tai enemmän
Muutamia pilviä 4100 ft:n korkeudessa

METAR: ESSL 071050Z 27020KT 240V300 9999 FEW041 13/03 Q1021

Aika: 13:02 (11:02 UTC)

Sääennuste

Tämä raportti tehtiin 2 tuntia ja 32 minuuttia sitten, kello 08.30 UTC
Ennuste voimassa 07. päivästä klo 09 UTC - 07. päivään klo 18 UTC
Tuuli 16 kn lännestä puuskistuen 30 kn:hen
Näkyvyys 10 km tai enemmän
ei pilviä alle 1500 m:ssä eikä cumulonimbus-pilviä
Tulossa
07. päivästä klo 16 UTC - 07. päivään klo 17 UTC
Tuuli 4 kn pohjoisen/luoteesta

TAF: ESSL 070830Z 0709/0718 28016G30KT CAVOK BECMG 0716/0717 34004KT

Säähavainnot ja -ennusteet yli 4000 lentoasemalta (METAR- ja TAF-raportit).

Käytössä olevat sääasemat on merkitty karttaan keltaisilla ja punaisilla pisteillä.

Aseta hiiri pisteen päälle nähdäksesi sääaseman nimen.

Klikkaa sitten nähdäksesi säähavainnot ja -ennusteet.

Kartan vaihtaminen: klikkaa mustalla rastilla varustettuja vihreitä pisteitä, niin voit zoomata sisään; viivalla varustettua vihreää pistettä, niin voit zoomata ulos tai vihreitä nuolia, niin pääset viereisille kartoille.


METAR-TAF: